• Join FlightAware (Why Join?)
  • Login
  • US Flag 
08:03PM EST


 

Airport Tracker/Info


-or-


 

Live Flight TrackerFlight Track Log ✈ KAP58 ✈ 22-May-2013 ✈ KBOS - KHYA

Flight Track Log - Related Links

Times and Time Zones

All times are in EDT time to prevent confusion due to time zone crossing. See the KAP58 flight status page for this flight to view local times or setup timezone preferences in your user account.

Time Position Orientation Groundspeed Altitude Reporting Facility
EDT Latitude Longitude Course Direction KTS MPH feet Rate Location/Type
06:24PM 42.3500 -70.9833 124° Southeast 84 97 500  Level KA90
06:25PM 42.3333 -70.9500 124° Southeast 111 128 1,300 720 Climbing KA90
06:26PM 42.3167 -70.9167 124° Southeast 123 142 2,000 600 Climbing KA90
06:27PM 42.3000 -70.8667 114° Southeast 144 166 2,500 660 Climbing KA90
06:28PM 42.2833 -70.8333 124° Southeast 137 158 3,300 600 Climbing KA90
06:29PM 42.2500 -70.8000 143° Southeast 142 163 3,800 300 Climbing KA90
06:30PM 42.2167 -70.7667 143° Southeast 139 160 4,000 180 Climbing KA90
06:32PM 42.1591 -70.7150 139° Southeast  Level Estimated
06:39PM 41.9587 -70.5074 139° Southeast  Level FlightAware Approximate
06:40PM 41.9320 -70.4761 139° Southeast  Level FlightAware Approximate
06:41PM 41.9052 -70.4449 139° Southeast  Level FlightAware Approximate
06:42PM 41.8784 -70.4137 139° Southeast  Level FlightAware Approximate
06:43PM 41.8486 -70.3887 155° Southeast  Level FlightAware Approximate
06:44PM 41.8164 -70.3686 155° Southeast  Level FlightAware Approximate
06:45PM 41.7843 -70.3485 155° Southeast  Level FlightAware Approximate
06:46PM 41.7522 -70.3284 155° Southeast  Level FlightAware Approximate
06:47PM 41.7205 -70.3070 151° Southeast  Level FlightAware Approximate
06:48PM 41.6895 -70.2838 151° Southeast  Level FlightAware Approximate
06:49PM 41.6667 -70.2667 151° Southeast  Level FlightAware Approximate
06:50PM 41.6693 -70.2804 151° Southeast  Level Estimated
06:51PM 41.6693 -70.2804 151° Southeast  Level Estimated
06:52PM 41.6693 -70.2804 151° Southeast  Level Estimated
06:53PM 41.6693 -70.2804 151° Southeast  Level Estimated
06:54PM 41.6693 -70.2804 151° Southeast  Level Estimated